Time;durP1;ratioP1;P1;durP2;ratioP2;P2;SDS_P1;SDS_P2;PMS_P1;PMS_P2;Temp;Humidity;BMP_temperature;BMP_pressure;BME280_temperature;BME280_humidity;BME280_pressure;Samples;Min_cycle;Max_cycle;Signal;HPM_P1;HPM_P2
2023/04/26 00:00:19;;;;;;;5.40;2.00;;;;;;;1.23;100.00;101061.22;691150;28;1841;-63
2023/04/26 00:00:44;;;;;;;4.30;2.00;;;;;;;1.23;100.00;101055.19;691289;28;1516;-62
2023/04/26 00:01:04;;;;;;;4.35;2.05;;;;;;;1.23;100.00;101056.06;690526;28;4529;-63
2023/04/26 00:01:26;;;;;;;4.45;2.38;;;;;;;1.22;100.00;101056.00;691223;28;1262;-62
2023/04/26 00:01:46;;;;;;;5.90;2.55;;;;;;;1.22;100.00;101053.44;691720;28;1458;-63
2023/04/26 00:02:07;;;;;;;4.97;2.10;;;;;;;1.20;100.00;101053.38;691286;28;1167;-63
2023/04/26 00:02:27;;;;;;;5.73;2.30;;;;;;;1.21;100.00;101057.72;692119;28;972;-63
2023/04/26 00:02:48;;;;;;;6.20;2.33;;;;;;;1.23;100.00;101058.63;690495;28;1552;-62
2023/04/26 00:03:09;;;;;;;6.78;2.38;;;;;;;1.24;100.00;101056.97;692349;28;1385;-63
2023/04/26 00:03:29;;;;;;;5.65;2.25;;;;;;;1.23;100.00;101058.63;691268;28;1256;-63
2023/04/26 00:03:50;;;;;;;5.77;2.20;;;;;;;1.22;100.00;101061.16;691569;28;1464;-63
2023/04/26 00:04:10;;;;;;;5.95;2.20;;;;;;;1.22;100.00;101058.56;690374;28;4285;-62
2023/04/26 00:04:30;;;;;;;5.10;2.10;;;;;;;1.23;100.00;101056.06;691878;28;932;-63
2023/04/26 00:04:54;;;;;;;5.17;2.27;;;;;;;1.23;100.00;101055.19;690483;28;1401;-62
2023/04/26 00:05:15;;;;;;;6.18;2.50;;;;;;;1.23;100.00;101056.06;692225;28;920;-63
2023/04/26 00:05:36;;;;;;;5.70;2.53;;;;;;;1.32;100.00;101061.59;691431;28;919;-62
2023/04/26 00:06:02;;;;;;;6.78;2.30;;;;;;;1.31;100.00;101058.94;690505;28;951;-63
2023/04/26 00:06:23;;;;;;;6.68;2.47;;;;;;;1.25;100.00;101056.16;689990;28;1223;-63
2023/04/26 00:06:44;;;;;;;7.17;2.33;;;;;;;1.19;100.00;101054.19;689806;28;1426;-63
2023/04/26 00:07:05;;;;;;;6.63;2.38;;;;;;;1.15;100.00;101063.50;690172;28;4452;-63
2023/04/26 00:07:27;;;;;;;4.40;2.17;;;;;;;1.10;100.00;101056.41;692114;28;832;-61
2023/04/26 00:07:49;;;;;;;4.82;2.20;;;;;;;1.04;100.00;101057.03;690527;28;1896;-63
2023/04/26 00:08:09;;;;;;;5.85;2.22;;;;;;;1.04;100.00;101056.16;692341;28;1046;-63
2023/04/26 00:08:30;;;;;;;5.40;2.40;;;;;;;1.06;100.00;101059.69;690658;28;861;-63
2023/04/26 00:08:50;;;;;;;5.13;2.40;;;;;;;1.04;100.00;101053.56;686907;28;1015;-62
2023/04/26 00:09:11;;;;;;;5.53;2.50;;;;;;;1.02;100.00;101057.00;687895;28;794;-62
2023/04/26 00:09:32;;;;;;;5.40;2.45;;;;;;;1.04;100.00;101054.47;687658;28;1157;-63
2023/04/26 00:09:52;;;;;;;5.63;2.30;;;;;;;1.10;100.00;101064.13;686524;28;1569;-61
2023/04/26 00:10:13;;;;;;;5.22;2.15;;;;;;;1.07;100.00;101058.88;686511;28;4827;-62
2023/04/26 00:10:33;;;;;;;5.68;2.47;;;;;;;1.10;100.00;101064.13;687956;28;838;-62
2023/04/26 00:10:53;;;;;;;5.77;2.33;;;;;;;1.11;100.00;101058.16;689357;28;919;-62
2023/04/26 00:11:14;;;;;;;4.80;2.00;;;;;;;1.11;100.00;101060.72;687601;28;1101;-62
2023/04/26 00:11:34;;;;;;;4.60;2.27;;;;;;;1.10;100.00;101053.84;687525;28;754;-63
2023/04/26 00:11:55;;;;;;;4.53;2.40;;;;;;;1.12;100.00;101057.34;688795;28;1924;-62
2023/04/26 00:12:15;;;;;;;5.90;2.50;;;;;;;1.07;100.00;101053.72;689837;28;1177;-63
2023/04/26 00:12:36;;;;;;;4.83;2.30;;;;;;;1.08;100.00;101056.34;691951;28;1274;-63
2023/04/26 00:12:57;;;;;;;6.10;2.50;;;;;;;1.09;100.00;101062.38;692396;28;1096;-63
2023/04/26 00:13:17;;;;;;;5.50;2.43;;;;;;;1.06;100.00;101051.94;687288;28;4320;-63
2023/04/26 00:13:37;;;;;;;5.28;2.25;;;;;;;1.11;100.00;101058.16;686831;28;1665;-63
2023/04/26 00:13:58;;;;;;;4.97;2.30;;;;;;;1.13;100.00;101059.97;688189;28;932;-62
2023/04/26 00:14:18;;;;;;;5.00;2.20;;;;;;;1.13;100.00;101053.94;685302;28;1256;-63
2023/04/26 00:14:39;;;;;;;5.07;2.37;;;;;;;1.12;100.00;101062.47;684819;28;1460;-62
2023/04/26 00:14:59;;;;;;;5.30;2.20;;;;;;;1.07;100.00;101053.72;686911;28;865;-63
2023/04/26 00:15:19;;;;;;;6.07;2.43;;;;;;;1.07;100.00;101053.72;690330;28;841;-63
2023/04/26 00:15:40;;;;;;;5.38;2.30;;;;;;;1.08;100.00;101056.34;688401;28;1569;-63
2023/04/26 00:16:00;;;;;;;6.00;2.30;;;;;;;1.07;100.00;101053.72;689988;28;1283;-63
2023/04/26 00:16:21;;;;;;;6.10;2.47;;;;;;;1.07;100.00;101061.44;690650;28;4581;-62
2023/04/26 00:16:41;;;;;;;4.53;2.00;;;;;;;1.07;100.00;101058.88;688859;28;1594;-62
2023/04/26 00:17:03;;;;;;;4.43;2.00;;;;;;;1.05;100.00;101052.75;690459;28;809;-62
2023/04/26 00:17:23;;;;;;;4.93;2.33;;;;;;;1.06;100.00;101052.81;692260;28;1290;-63
2023/04/26 00:17:44;;;;;;;5.47;2.40;;;;;;;1.05;100.00;101057.91;690093;28;1569;-63
2023/04/26 00:18:04;;;;;;;6.37;2.50;;;;;;;1.05;100.00;101061.34;689663;28;912;-63
2023/04/26 00:18:25;;;;;;;5.57;2.37;;;;;;;1.05;100.00;101060.50;690972;28;896;-62
2023/04/26 00:18:45;;;;;;;7.90;2.80;;;;;;;1.03;100.00;101050.13;690945;28;1527;-63
2023/04/26 00:19:05;;;;;;;9.60;2.83;;;;;;;1.04;100.00;101054.47;691117;28;4536;-63
2023/04/26 00:19:26;;;;;;;7.20;2.70;;;;;;;1.01;100.00;101057.78;692211;28;1004;-62
2023/04/26 00:19:46;;;;;;;5.72;2.53;;;;;;;1.02;100.00;101051.84;689915;28;2570;-62
2023/04/26 00:20:09;;;;;;;4.90;2.33;;;;;;;1.02;100.00;101062.13;691129;28;924;-63
2023/04/26 00:20:30;;;;;;;5.70;2.33;;;;;;;1.00;100.00;101050.88;691782;28;976;-63
2023/04/26 00:20:50;;;;;;;6.20;2.40;;;;;;;0.99;100.00;101056.84;689657;28;1518;-63
2023/04/26 00:21:11;;;;;;;5.70;2.23;;;;;;;0.98;100.00;101055.09;690923;28;1099;-63
2023/04/26 00:21:32;;;;;;;4.35;2.08;;;;;;;0.99;100.00;101054.25;690752;28;923;-63
2023/04/26 00:21:52;;;;;;;5.83;2.40;;;;;;;0.98;100.00;101055.09;690077;28;1548;-63
2023/04/26 00:22:14;;;;;;;6.40;2.42;;;;;;;0.98;100.00;101054.22;690300;28;4378;-62
2023/04/26 00:22:34;;;;;;;5.65;2.35;;;;;;;0.99;100.00;101062.00;691027;28;943;-62
2023/04/26 00:22:54;;;;;;;5.00;2.33;;;;;;;0.98;100.00;101057.69;689635;28;1458;-63
2023/04/26 00:23:16;;;;;;;5.43;2.30;;;;;;;0.99;100.00;101056.84;690911;28;876;-63
2023/04/26 00:23:36;;;;;;;5.32;2.42;;;;;;;0.98;100.00;101060.25;691494;28;925;-63
2023/04/26 00:23:57;;;;;;;5.75;2.42;;;;;;;0.98;100.00;101055.09;686403;28;1431;-62
2023/04/26 00:24:17;;;;;;;5.77;2.33;;;;;;;0.97;100.00;101058.50;685774;28;947;-63
2023/04/26 00:24:38;;;;;;;6.50;2.40;;;;;;;0.99;100.00;101056.84;687639;28;1494;-62
2023/04/26 00:24:58;;;;;;;5.93;2.15;;;;;;;0.98;100.00;101052.53;687866;28;849;-62
2023/04/26 00:25:19;;;;;;;7.70;2.60;;;;;;;0.97;100.00;101052.44;685324;28;4533;-62
2023/04/26 00:25:39;;;;;;;5.03;2.33;;;;;;;0.92;100.00;101054.84;688473;28;1478;-63
2023/04/26 00:26:00;;;;;;;5.17;2.37;;;;;;;0.97;100.00;101058.50;691944;28;956;-62
2023/04/26 00:26:21;;;;;;;5.40;2.40;;;;;;;0.95;100.00;101051.50;693286;28;976;-62
2023/04/26 00:26:41;;;;;;;5.18;2.22;;;;;;;0.95;100.00;101054.97;689528;28;1655;-63
2023/04/26 00:27:07;;;;;;;5.53;2.20;;;;;;;0.94;100.00;101058.38;692040;28;932;-62
2023/04/26 00:27:28;;;;;;;7.72;2.40;;;;;;;0.92;100.00;101056.53;691788;28;1230;-62
2023/04/26 00:27:49;;;;;;;5.85;2.33;;;;;;;0.94;100.00;101057.47;691539;28;1544;-63
2023/04/26 00:28:09;;;;;;;6.00;2.50;;;;;;;0.90;100.00;101053.91;688648;28;4414;-63
2023/04/26 00:28:30;;;;;;;4.43;2.25;;;;;;;0.89;100.00;101054.72;688187;28;916;-62
2023/04/26 00:28:50;;;;;;;4.03;2.17;;;;;;;0.88;100.00;101052.09;685320;28;1688;-62
2023/04/26 00:29:11;;;;;;;5.43;2.30;;;;;;;0.89;100.00;101058.97;686038;28;806;-63
2023/04/26 00:29:33;;;;;;;4.90;2.10;;;;;;;0.88;100.00;101059.81;683541;28;1360;-63
2023/04/26 00:29:53;;;;;;;4.55;2.20;;;;;;;0.91;100.00;101062.50;683989;28;2123;-62
2023/04/26 00:30:14;;;;;;;4.63;2.23;;;;;;;0.91;100.00;101058.22;682344;28;1906;-63
2023/04/26 00:30:36;;;;;;;4.50;2.28;;;;;;;0.88;100.00;101052.09;684316;28;1380;-62
2023/04/26 00:30:57;;;;;;;5.20;2.22;;;;;;;0.83;100.00;101054.44;683798;28;1516;-62
2023/04/26 00:31:17;;;;;;;4.88;2.15;;;;;;;0.79;100.00;101055.13;683533;28;4317;-63
2023/04/26 00:31:37;;;;;;;4.33;2.10;;;;;;;0.83;100.00;101054.44;682529;28;1645;-62
2023/04/26 00:31:58;;;;;;;5.40;2.17;;;;;;;0.86;100.00;101057.19;686468;28;1232;-62
2023/04/26 00:32:18;;;;;;;5.13;2.10;;;;;;;0.87;100.00;101051.19;684954;28;1149;-62
2023/04/26 00:32:40;;;;;;;4.65;2.22;;;;;;;0.84;100.00;101051.97;688067;28;1831;-63
2023/04/26 00:33:01;;;;;;;5.32;2.50;;;;;;;0.82;100.00;101050.16;685481;28;865;-62
2023/04/26 00:33:21;;;;;;;5.00;2.37;;;;;;;0.78;100.00;101046.56;682352;28;1278;-62
2023/04/26 00:33:43;;;;;;;6.05;2.40;;;;;;;0.77;100.00;101043.91;681343;28;1576;-63
2023/04/26 00:34:03;;;;;;;6.47;2.80;;;;;;;0.75;100.00;101051.59;683116;28;1201;-62
2023/04/26 00:34:30;;;;;;;5.65;2.40;;;;;;;0.74;100.00;101057.53;686938;28;4459;-63
2023/04/26 00:34:50;;;;;;;5.97;2.40;;;;;;;0.76;100.00;101048.19;683498;28;1082;-62
2023/04/26 00:35:11;;;;;;;4.77;2.40;;;;;;;0.81;100.00;101050.94;684020;28;1431;-63
2023/04/26 00:35:31;;;;;;;4.43;2.20;;;;;;;0.80;100.00;101055.22;686097;28;896;-63
2023/04/26 00:35:52;;;;;;;5.67;2.43;;;;;;;0.81;100.00;101056.09;685181;28;1530;-63
2023/04/26 00:36:13;;;;;;;5.40;2.67;;;;;;;0.82;100.00;101052.72;686805;28;789;-63
2023/04/26 00:36:33;;;;;;;6.47;2.70;;;;;;;0.79;100.00;101050.91;689598;28;981;-63
2023/04/26 00:36:54;;;;;;;5.55;2.45;;;;;;;0.82;100.00;101055.28;690688;28;1574;-62
2023/04/26 00:37:15;;;;;;;6.82;2.50;;;;;;;0.81;100.00;101053.53;689690;28;4432;-62
2023/04/26 00:37:36;;;;;;;7.13;2.57;;;;;;;0.77;100.00;101054.22;689082;28;1228;-63
2023/04/26 00:37:56;;;;;;;5.80;2.37;;;;;;;0.76;100.00;101049.88;685854;28;1849;-62
2023/04/26 00:38:17;;;;;;;5.77;2.43;;;;;;;0.78;100.00;101045.69;683399;28;1383;-63
2023/04/26 00:38:37;;;;;;;5.85;2.40;;;;;;;0.80;100.00;101047.50;683266;28;1628;-62
2023/04/26 00:38:57;;;;;;;5.78;2.30;;;;;;;0.82;100.00;101052.72;681632;28;1539;-62
2023/04/26 00:39:18;;;;;;;6.87;2.40;;;;;;;0.80;100.00;101047.50;680600;28;964;-63
2023/04/26 00:39:38;;;;;;;6.63;2.35;;;;;;;0.81;100.00;101053.53;679557;28;1525;-63
2023/04/26 00:39:58;;;;;;;6.43;2.40;;;;;;;0.77;100.00;101049.06;683878;28;1168;-63
2023/04/26 00:40:19;;;;;;;6.57;2.53;;;;;;;0.79;100.00;101048.31;684885;28;4861;-63
2023/04/26 00:40:40;;;;;;;5.45;2.40;;;;;;;0.78;100.00;101050.84;682074;28;1541;-63
2023/04/26 00:41:01;;;;;;;5.63;2.60;;;;;;;0.76;100.00;101048.19;685746;28;856;-63
2023/04/26 00:41:25;;;;;;;5.20;2.53;;;;;;;0.79;100.00;101045.75;686852;28;1359;-63
2023/04/26 00:41:47;;;;;;;5.45;2.47;;;;;;;0.80;100.00;101051.75;685001;28;1534;-63
2023/04/26 00:42:07;;;;;;;4.30;2.20;;;;;;;0.83;100.00;101045.06;684404;28;5364;-62
2023/04/26 00:42:28;;;;;;;5.90;2.47;;;;;;;0.82;100.00;101055.28;684898;28;1423;-63
2023/04/26 00:42:55;;;;;;;6.10;2.60;;;;;;;0.81;100.00;101050.94;686621;28;1614;-62
2023/04/26 00:43:16;;;;;;;6.03;2.55;;;;;;;0.80;100.00;101046.63;688891;28;4646;-63
2023/04/26 00:43:36;;;;;;;5.10;2.30;;;;;;;0.80;100.00;101050.09;688937;28;1279;-63
2023/04/26 00:43:56;;;;;;;6.07;2.28;;;;;;;0.81;100.00;101046.66;689246;28;1094;-62
2023/04/26 00:44:17;;;;;;;5.73;2.57;;;;;;;0.81;100.00;101041.53;688407;28;1297;-63
2023/04/26 00:44:39;;;;;;;4.72;2.40;;;;;;;0.80;100.00;101044.94;688421;28;915;-63
2023/04/26 00:44:59;;;;;;;5.10;2.25;;;;;;;0.78;100.00;101045.69;688230;28;1089;-63
2023/04/26 00:45:19;;;;;;;5.70;2.53;;;;;;;0.77;100.00;101047.34;687563;28;1375;-62
2023/04/26 00:45:40;;;;;;;6.00;2.93;;;;;;;0.77;100.00;101038.78;687276;28;1600;-62
2023/04/26 00:46:01;;;;;;;5.28;2.15;;;;;;;0.77;100.00;101043.91;686568;28;821;-62
2023/04/26 00:46:21;;;;;;;5.00;2.30;;;;;;;0.77;100.00;101043.91;689988;28;4383;-63
2023/04/26 00:46:42;;;;;;;4.33;2.33;;;;;;;0.77;100.00;101041.34;690538;28;1564;-63
2023/04/26 00:47:02;;;;;;;4.75;2.30;;;;;;;0.76;100.00;101044.72;690670;28;1334;-62
2023/04/26 00:47:28;;;;;;;4.10;2.17;;;;;;;0.75;100.00;101045.53;692345;28;1172;-63
2023/04/26 00:47:49;;;;;;;4.70;2.30;;;;;;;0.72;100.00;101045.41;690476;28;1657;-62
2023/04/26 00:48:10;;;;;;;5.55;2.40;;;;;;;0.71;100.00;101048.78;688873;28;1195;-63
2023/04/26 00:48:32;;;;;;;5.72;2.55;;;;;;;0.69;100.00;101043.59;687375;28;1323;-63
2023/04/26 00:48:52;;;;;;;6.30;2.70;;;;;;;0.67;100.00;101045.22;687531;28;1534;-63
2023/04/26 00:49:17;;;;;;;5.33;2.67;;;;;;;0.62;100.00;101041.59;685788;28;4411;-62
2023/04/26 00:49:38;;;;;;;5.15;2.60;;;;;;;0.62;100.00;101049.31;684827;28;884;-63
2023/04/26 00:50:00;;;;;;;5.73;2.67;;;;;;;0.60;100.00;101049.25;686311;28;1607;-61
2023/04/26 00:50:20;;;;;;;5.50;2.67;;;;;;;0.59;100.00;101037.19;687837;28;1916;-62
2023/04/26 00:50:41;;;;;;;5.23;2.33;;;;;;;0.58;100.00;101048.31;685077;28;1589;-62
2023/04/26 00:51:05;;;;;;;5.25;2.10;;;;;;;0.59;100.00;101039.75;683506;28;2100;-62
2023/04/26 00:51:26;;;;;;;4.88;2.20;;;;;;;0.59;100.00;101044.91;683151;28;916;-62
2023/04/26 00:51:47;;;;;;;5.40;2.47;;;;;;;0.60;100.00;101041.53;682291;28;1503;-62
2023/04/26 00:52:08;;;;;;;5.45;2.40;;;;;;;0.58;100.00;101045.75;683401;28;4563;-62
2023/04/26 00:52:30;;;;;;;5.30;2.53;;;;;;;0.58;100.00;101044.84;686637;28;1095;-62
2023/04/26 00:52:51;;;;;;;4.78;2.25;;;;;;;0.56;100.00;101043.91;687802;28;1058;-62
2023/04/26 00:53:13;;;;;;;5.50;2.40;;;;;;;0.56;100.00;101044.78;689892;28;1286;-62
2023/04/26 00:53:34;;;;;;;5.65;2.40;;;;;;;0.53;100.00;101042.09;689045;28;857;-62
2023/04/26 00:53:55;;;;;;;5.05;2.40;;;;;;;0.50;100.00;101039.41;686813;28;2204;-62
2023/04/26 00:54:17;;;;;;;4.68;2.30;;;;;;;0.48;100.00;101041.00;687977;28;1280;-63
2023/04/26 00:54:38;;;;;;;6.07;2.22;;;;;;;0.50;100.00;101039.41;685322;28;905;-62
2023/04/26 00:54:59;;;;;;;5.75;2.30;;;;;;;0.50;100.00;101039.41;681356;28;1366;-63
2023/04/26 00:55:22;;;;;;;5.60;2.30;;;;;;;0.49;100.00;101041.06;686352;28;4498;-63
2023/04/26 00:55:44;;;;;;;6.20;2.55;;;;;;;0.53;100.00;101039.50;683228;28;1024;-62
2023/04/26 00:56:08;;;;;;;5.95;2.58;;;;;;;0.56;100.00;101037.06;686976;28;1191;-63
2023/04/26 00:56:29;;;;;;;5.72;2.70;;;;;;;0.55;100.00;101040.44;686137;28;1877;-63
2023/04/26 00:56:53;;;;;;;5.85;2.47;;;;;;;0.54;100.00;101043.84;685194;28;1513;-62
2023/04/26 00:57:13;;;;;;;5.93;2.35;;;;;;;0.55;100.00;101043.00;686977;28;896;-63
2023/04/26 00:57:34;;;;;;;5.55;2.35;;;;;;;0.53;100.00;101042.09;683278;28;1104;-63
2023/04/26 00:57:54;;;;;;;6.23;2.50;;;;;;;0.55;100.00;101037.88;680086;28;1749;-62
2023/04/26 00:58:15;;;;;;;7.07;2.50;;;;;;;0.56;100.00;101043.91;679481;29;4344;-62
2023/04/26 00:58:36;;;;;;;5.20;2.40;;;;;;;0.53;100.00;101036.94;684343;28;870;-62
2023/04/26 00:58:57;;;;;;;5.97;2.38;;;;;;;0.53;100.00;101044.66;682907;28;1524;-63
2023/04/26 00:59:21;;;;;;;5.32;2.40;;;;;;;0.51;100.00;101046.28;685398;28;1131;-62
2023/04/26 00:59:41;;;;;;;6.13;2.42;;;;;;;0.52;100.00;101040.31;688578;28;1655;-63
2023/04/26 01:00:02;;;;;;;7.20;2.67;;;;;;;0.53;100.00;101047.22;685546;28;1156;-61
2023/04/26 01:00:22;;;;;;;6.75;2.75;;;;;;;0.52;100.00;101042.91;687887;28;932;-61
2023/04/26 01:00:43;;;;;;;5.67;2.40;;;;;;;0.54;100.00;101043.84;687083;28;1522;-61
2023/04/26 01:01:04;;;;;;;5.72;2.40;;;;;;;0.54;100.00;101037.81;688569;28;1349;-61
2023/04/26 01:01:24;;;;;;;5.43;2.50;;;;;;;0.55;100.00;101037.88;687932;28;4599;-62
2023/04/26 01:01:46;;;;;;;6.80;2.50;;;;;;;0.54;100.00;101041.28;685238;28;1747;-62
2023/04/26 01:02:08;;;;;;;5.18;2.47;;;;;;;0.55;100.00;101047.28;685337;28;1361;-62
2023/04/26 01:02:28;;;;;;;5.60;2.58;;;;;;;0.55;100.00;101039.56;685295;28;908;-62
2023/04/26 01:02:48;;;;;;;5.43;2.50;;;;;;;0.53;100.00;101036.94;681230;28;1611;-62
2023/04/26 01:03:10;;;;;;;7.20;2.45;;;;;;;0.53;100.00;101041.19;680724;28;1351;-62
2023/04/26 01:03:31;;;;;;;5.95;2.35;;;;;;;0.51;100.00;101041.13;681862;29;862;-62
2023/04/26 01:03:51;;;;;;;4.53;2.40;;;;;;;0.50;100.00;101045.41;683787;28;1011;-61
2023/04/26 01:04:14;;;;;;;6.10;2.55;;;;;;;0.52;100.00;101042.91;686611;28;4361;-62
2023/04/26 01:04:36;;;;;;;6.63;2.63;;;;;;;0.52;100.00;101042.91;688520;28;1156;-62
2023/04/26 01:04:56;;;;;;;5.78;2.47;;;;;;;0.49;100.00;101053.94;691682;28;1568;-61
2023/04/26 01:05:16;;;;;;;5.20;2.40;;;;;;;0.49;100.00;101040.19;691270;28;1579;-62
2023/04/26 01:05:38;;;;;;;6.18;2.75;;;;;;;0.51;100.00;101041.13;689742;28;892;-62
2023/04/26 01:05:58;;;;;;;6.07;2.70;;;;;;;0.49;100.00;101042.78;687606;28;1569;-61
2023/04/26 01:06:19;;;;;;;5.17;2.50;;;;;;;0.44;100.00;101044.25;686359;28;1343;-61
2023/04/26 01:06:40;;;;;;;5.05;2.47;;;;;;;0.44;100.00;101041.69;687099;28;1557;-61
2023/04/26 01:07:01;;;;;;;5.10;2.50;;;;;;;0.44;100.00;101044.25;688427;28;920;-61
2023/04/26 01:07:22;;;;;;;7.03;2.50;;;;;;;0.48;100.00;101047.03;685686;28;4399;-61
2023/04/26 01:07:43;;;;;;;6.53;2.50;;;;;;;0.49;100.00;101042.78;691073;28;1521;-62
2023/04/26 01:08:05;;;;;;;5.53;2.50;;;;;;;0.43;100.00;101048.53;688839;28;2107;-61
2023/04/26 01:08:25;;;;;;;5.22;2.25;;;;;;;0.37;100.00;101047.41;686677;28;852;-61
2023/04/26 01:08:46;;;;;;;6.82;2.60;;;;;;;0.36;100.00;101048.19;686756;28;1571;-61
2023/04/26 01:09:08;;;;;;;5.53;2.57;;;;;;;0.33;100.00;101042.13;688667;28;1268;-61
2023/04/26 01:09:30;;;;;;;5.40;2.58;;;;;;;0.34;100.00;101051.56;687245;28;1102;-61
2023/04/26 01:09:55;;;;;;;6.22;2.80;;;;;;;0.33;100.00;101042.13;680927;28;1572;-62
2023/04/26 01:10:16;;;;;;;5.97;2.67;;;;;;;0.32;100.00;101037.78;685156;28;4404;-63
2023/04/26 01:10:39;;;;;;;7.05;2.60;;;;;;;0.32;100.00;101053.22;687564;28;1395;-62
2023/04/26 01:10:59;;;;;;;6.15;2.60;;;;;;;0.31;100.00;101048.88;686093;28;1255;-61
2023/04/26 01:11:21;;;;;;;5.97;2.53;;;;;;;0.31;100.00;101053.16;687595;28;775;-62
2023/04/26 01:11:42;;;;;;;6.57;2.70;;;;;;;0.32;100.00;101049.78;687770;28;1534;-62
2023/04/26 01:12:03;;;;;;;6.30;2.70;;;;;;;0.32;100.00;101053.22;690413;28;1385;-62
2023/04/26 01:12:25;;;;;;;7.72;2.83;;;;;;;0.30;100.00;101052.25;688584;28;947;-61
2023/04/26 01:12:46;;;;;;;6.70;2.88;;;;;;;0.28;100.00;101053.03;689497;28;1581;-62
2023/04/26 01:13:13;;;;;;;6.20;2.55;;;;;;;0.28;100.00;101048.75;687210;28;4388;-62
2023/04/26 01:13:35;;;;;;;7.80;2.78;;;;;;;0.29;100.00;101053.09;689395;28;1265;-63
2023/04/26 01:13:56;;;;;;;6.68;2.80;;;;;;;0.30;100.00;101059.97;684457;28;1406;-62
2023/04/26 01:14:17;;;;;;;5.10;2.60;;;;;;;0.32;100.00;101058.38;686533;28;1248;-62
2023/04/26 01:14:39;;;;;;;6.53;2.47;;;;;;;0.34;100.00;101061.00;685777;28;946;-62
2023/04/26 01:15:01;;;;;;;6.18;2.40;;;;;;;0.37;100.00;101057.69;686743;28;880;-62
2023/04/26 01:15:22;;;;;;;7.70;2.90;;;;;;;0.37;100.00;101052.53;687740;28;829;-62
2023/04/26 01:15:45;;;;;;;5.93;2.85;;;;;;;0.38;100.00;101047.44;685406;28;1549;-62
2023/04/26 01:16:07;;;;;;;6.10;2.60;;;;;;;0.38;100.00;101049.16;689899;28;4947;-62
2023/04/26 01:16:28;;;;;;;6.68;2.70;;;;;;;0.34;100.00;101054.16;691464;28;1321;-62
2023/04/26 01:16:48;;;;;;;5.88;2.47;;;;;;;0.33;100.00;101061.81;687302;28;1616;-62
2023/04/26 01:17:09;;;;;;;5.40;2.75;;;;;;;0.36;100.00;101061.06;683567;28;1304;-62
2023/04/26 01:17:29;;;;;;;6.33;2.77;;;;;;;0.32;100.00;101055.78;684598;28;940;-62
2023/04/26 01:17:51;;;;;;;6.53;2.75;;;;;;;0.34;100.00;101058.41;678827;29;1464;-62
2023/04/26 01:18:13;;;;;;;6.40;2.60;;;;;;;0.36;100.00;101059.38;678934;29;885;-62
2023/04/26 01:18:34;;;;;;;6.55;2.80;;;;;;;0.37;100.00;101048.25;678437;29;933;-63
2023/04/26 01:18:55;;;;;;;7.30;2.83;;;;;;;0.38;100.00;101060.31;680569;28;1550;-62
2023/04/26 01:19:17;;;;;;;6.47;2.75;;;;;;;0.36;100.00;101056.81;684280;28;4400;-62
2023/04/26 01:19:56;;;;;;;5.65;2.63;;;;;;;0.38;100.00;101062.03;687666;28;1163;-62
2023/04/26 01:20:17;;;;;;;5.53;2.80;;;;;;;0.38;100.00;101059.44;692822;28;821;-62
2023/04/26 01:20:37;;;;;;;5.97;2.70;;;;;;;0.40;100.00;101062.94;690853;28;1346;-62
2023/04/26 01:20:57;;;;;;;7.13;2.30;;;;;;;0.40;100.00;101052.66;691125;28;1506;-62
2023/04/26 01:21:23;;;;;;;6.32;2.80;;;;;;;0.42;100.00;101061.34;691780;28;1338;-62
2023/04/26 01:21:43;;;;;;;4.80;2.60;;;;;;;0.40;100.00;101062.94;689524;28;1566;-61
2023/04/26 01:22:06;;;;;;;5.50;2.65;;;;;;;0.40;100.00;101060.38;690915;28;1165;-63
2023/04/26 01:22:27;;;;;;;6.38;2.92;;;;;;;0.39;100.00;101061.19;690767;28;5927;-62
2023/04/26 01:22:47;;;;;;;8.13;3.25;;;;;;;0.39;100.00;101063.75;690610;28;1529;-62
2023/04/26 01:23:10;;;;;;;7.68;3.00;;;;;;;0.39;100.00;101061.19;690254;28;988;-62
2023/04/26 01:23:32;;;;;;;6.18;2.70;;;;;;;0.36;100.00;101061.06;690898;28;900;-62
2023/04/26 01:23:52;;;;;;;6.22;2.55;;;;;;;0.34;100.00;101063.56;686837;28;1926;-62
2023/04/26 01:24:13;;;;;;;6.07;2.40;;;;;;;0.31;100.00;101059.16;688878;28;1002;-62
2023/04/26 01:24:35;;;;;;;6.78;2.40;;;;;;;0.28;100.00;101056.47;684678;28;1028;-61
2023/04/26 01:24:58;;;;;;;6.38;2.85;;;;;;;0.32;100.00;101060.06;680842;28;1468;-62
2023/04/26 01:25:20;;;;;;;7.20;2.83;;;;;;;0.32;100.00;101063.50;680657;29;4460;-62
2023/04/26 01:25:40;;;;;;;7.65;2.80;;;;;;;0.33;100.00;101064.38;681965;28;1642;-62
2023/04/26 01:26:00;;;;;;;6.40;2.63;;;;;;;0.29;100.00;101058.25;680028;29;1289;-61
2023/04/26 01:26:21;;;;;;;5.30;2.72;;;;;;;0.29;100.00;101055.66;684579;28;946;-62
2023/04/26 01:26:45;;;;;;;6.20;2.80;;;;;;;0.31;100.00;101061.75;686874;28;1615;-62
2023/04/26 01:27:07;;;;;;;6.30;2.90;;;;;;;0.31;100.00;101069.44;689396;28;1252;-62
2023/04/26 01:27:28;;;;;;;6.63;2.83;;;;;;;0.30;100.00;101066.81;689999;28;1273;-61
2023/04/26 01:27:48;;;;;;;6.33;2.73;;;;;;;0.30;100.00;101062.53;689364;28;1473;-62
2023/04/26 01:28:09;;;;;;;6.57;2.50;;;;;;;0.32;100.00;101062.63;689618;28;4561;-62
2023/04/26 01:28:29;;;;;;;4.73;2.40;;;;;;;0.29;100.00;101060.81;687791;28;1375;-62
2023/04/26 01:28:50;;;;;;;6.50;2.83;;;;;;;0.28;100.00;101066.75;687293;28;2270;-62
2023/04/26 01:29:17;;;;;;;7.40;3.17;;;;;;;0.30;100.00;101065.13;686651;28;872;-61
2023/04/26 01:29:38;;;;;;;7.15;2.72;;;;;;;0.33;100.00;101066.94;683178;28;1315;-62
2023/04/26 01:29:58;;;;;;;5.55;2.60;;;;;;;0.29;100.00;101071.09;685196;28;1560;-62
2023/04/26 01:30:19;;;;;;;5.03;2.67;;;;;;;0.29;100.00;101065.94;684698;28;1923;-62
2023/04/26 01:30:39;;;;;;;6.38;2.63;;;;;;;0.28;100.00;101064.19;686285;28;876;-62
2023/04/26 01:30:59;;;;;;;8.07;2.93;;;;;;;0.27;100.00;101067.56;686820;28;1643;-62
2023/04/26 01:31:20;;;;;;;8.02;3.00;;;;;;;0.23;100.00;101070.81;687752;28;4753;-62
2023/04/26 01:31:40;;;;;;;6.27;2.80;;;;;;;0.18;100.00;101062.03;689186;28;1636;-62
2023/04/26 01:32:01;;;;;;;7.05;2.80;;;;;;;0.19;100.00;101065.47;691117;28;1429;-62
2023/04/26 01:32:22;;;;;;;6.80;3.00;;;;;;;0.21;100.00;101062.16;690749;28;1239;-62
2023/04/26 01:32:43;;;;;;;7.35;3.22;;;;;;;0.19;100.00;101061.19;686366;28;1513;-62
2023/04/26 01:33:04;;;;;;;6.80;2.83;;;;;;;0.21;100.00;101061.25;688423;28;1012;-62
2023/04/26 01:33:24;;;;;;;7.57;2.83;;;;;;;0.20;100.00;101065.53;687773;28;1330;-62
2023/04/26 01:33:45;;;;;;;5.93;2.72;;;;;;;0.22;100.00;101055.31;684305;28;1568;-63
2023/04/26 01:34:06;;;;;;;7.20;2.70;;;;;;;0.24;100.00;101056.28;684395;28;4319;-62
2023/04/26 01:34:26;;;;;;;6.13;2.47;;;;;;;0.26;100.00;101062.34;688497;28;877;-62
2023/04/26 01:34:47;;;;;;;6.50;2.87;;;;;;;0.26;100.00;101059.78;689209;28;1521;-62
2023/04/26 01:35:07;;;;;;;6.65;2.78;;;;;;;0.23;100.00;101060.53;690082;28;1314;-62
2023/04/26 01:35:28;;;;;;;6.47;2.70;;;;;;;0.24;100.00;101061.44;686976;28;979;-61
2023/04/26 01:35:48;;;;;;;7.43;2.88;;;;;;;0.21;100.00;101059.59;687619;28;1451;-62
2023/04/26 01:36:09;;;;;;;8.07;3.30;;;;;;;0.18;100.00;101059.47;692865;28;742;-62
2023/04/26 01:36:29;;;;;;;6.97;3.13;;;;;;;0.19;100.00;101057.75;690231;28;1382;-62
2023/04/26 01:36:52;;;;;;;7.93;2.90;;;;;;;0.18;100.00;101059.47;686606;28;1626;-62
2023/04/26 01:37:13;;;;;;;7.25;2.90;;;;;;;0.12;100.00;101057.47;686824;28;4279;-63
2023/04/26 01:37:34;;;;;;;5.73;2.63;;;;;;;0.10;100.00;101060.81;688092;28;864;-62
2023/04/26 01:37:54;;;;;;;7.43;3.33;;;;;;;0.09;100.00;101051.34;687368;28;1485;-63
2023/04/26 01:38:16;;;;;;;6.90;2.88;;;;;;;0.08;100.00;101055.59;688610;28;953;-62
2023/04/26 01:38:37;;;;;;;5.53;2.75;;;;;;;0.08;100.00;101059.84;688157;28;1502;-63
2023/04/26 01:38:57;;;;;;;5.60;2.72;;;;;;;0.05;100.00;101055.47;688562;28;1609;-63
2023/04/26 01:39:18;;;;;;;4.97;2.63;;;;;;;0.05;100.00;101057.16;686480;28;1323;-63
2023/04/26 01:39:38;;;;;;;5.30;2.63;;;;;;;0.06;100.00;101056.34;685235;28;1401;-62
2023/04/26 01:39:58;;;;;;;5.70;2.53;;;;;;;0.07;100.00;101052.94;684244;28;1597;-62
2023/04/26 01:40:22;;;;;;;6.20;2.93;;;;;;;0.08;100.00;101052.16;685652;28;5421;-62
2023/04/26 01:40:44;;;;;;;7.18;3.03;;;;;;;0.06;100.00;101052.09;684410;28;1548;-62
2023/04/26 01:41:05;;;;;;;5.13;2.78;;;;;;;0.07;100.00;101064.13;685636;28;948;-62
2023/04/26 01:41:25;;;;;;;5.13;2.90;;;;;;;0.04;100.00;101060.53;685991;28;1141;-63